nws-alerts: Checking more than four warning/county codes can delay the loading of your pages. You should use a cron job to get the data.
EllijayWeather Historical Data
Daily Summary for April 18, 2020 Units:  English    Metric   Both
Daily Weekly Monthly Yearly
  High: Low: Average:
Temperature: 64.0 °F 43.0 °F 57.4 °F
Dew Point: 57.0 °F 40.0 °F 47.8 °F
Humidity: 97% 42% 72%
Wind Speed: 9mph 0mph 1.7mph
Wind Gust: 11mph - -
Wind- - SSW
Pressure: 30.1 in 29.9 in -
Precipitation: 0.330 in    
 
 
Tabular Data for April 18, 2020
Time Temperature Dew Point Pressure Wind Wind Speed Wind Gust Humidity Rainfall Rate (Hourly)
00:04 57.0 °F 49.0 °F 30.0 in Calm     74% 0.000 in
00:09 57.0 °F 48.0 °F 30.0 in Calm     73% 0.000 in
00:14 57.0 °F 49.0 °F 30.0 in Calm     74% 0.000 in
00:19 57.0 °F 49.0 °F 30.0 in Calm     74% 0.000 in
00:24 57.0 °F 48.0 °F 30.0 in Calm     73% 0.000 in
00:29 57.0 °F 48.0 °F 30.0 in Calm     73% 0.000 in
00:34 57.0 °F 48.0 °F 30.0 in Calm     73% 0.000 in
00:39 57.0 °F 48.0 °F 30.0 in Calm     73% 0.000 in
00:44 57.0 °F 48.0 °F 30.0 in Calm     72% 0.000 in
00:49 58.0 °F 49.0 °F 30.0 in Calm     73% 0.000 in
00:54 58.0 °F 49.0 °F 30.0 in Calm     72% 0.000 in
00:59 58.0 °F 50.0 °F 30.0 in Calm     74% 0.000 in
01:04 58.0 °F 50.0 °F 30.0 in Calm     74% 0.000 in
01:09 58.0 °F 50.0 °F 30.0 in Calm     76% 0.000 in
01:14 57.0 °F 50.0 °F 30.0 in Calm     76% 0.000 in
01:19 57.0 °F 49.0 °F 30.0 in Calm     74% 0.000 in
01:24 57.0 °F 49.0 °F 30.0 in Calm     74% 0.000 in
01:29 58.0 °F 49.0 °F 30.0 in Calm     74% 0.000 in
01:34 58.0 °F 49.0 °F 30.0 in Calm     73% 0.000 in
01:39 59.0 °F 50.0 °F 30.0 in Calm     74% 0.000 in
01:44 59.0 °F 50.0 °F 30.0 in Calm     74% 0.000 in
01:49 59.0 °F 50.0 °F 30.0 in Calm     73% 0.000 in
01:54 59.0 °F 50.0 °F 30.0 in Calm     73% 0.000 in
01:59 60.0 °F 51.0 °F 30.0 in Calm     73% 0.000 in
02:04 60.0 °F 51.0 °F 30.0 in Calm     73% 0.000 in
02:09 60.0 °F 51.0 °F 30.0 in Calm     72% 0.000 in
02:14 60.0 °F 51.0 °F 30.0 in Calm     73% 0.000 in
02:19 60.0 °F 51.0 °F 30.0 in Calm     72% 0.000 in
02:24 61.0 °F 51.0 °F 30.0 in Calm     71% 0.000 in
02:29 61.0 °F 51.0 °F 30.0 in Calm     71% 0.000 in
02:34 61.0 °F 52.0 °F 30.0 in Calm     71% 0.000 in
02:39 61.0 °F 52.0 °F 29.9 in Calm     71% 0.000 in
02:44 62.0 °F 52.0 °F 29.9 in Calm     71% 0.000 in
02:49 62.0 °F 52.0 °F 29.9 in Calm     71% 0.000 in
02:54 62.0 °F 52.0 °F 29.9 in Calm     71% 0.000 in
02:59 62.0 °F 53.0 °F 29.9 in Calm     71% 0.000 in
03:04 62.0 °F 53.0 °F 29.9 in Calm     71% 0.000 in
03:09 62.0 °F 53.0 °F 29.9 in Calm     71% 0.000 in
03:14 63.0 °F 53.0 °F 29.9 in Calm     70% 0.000 in
03:19 63.0 °F 53.0 °F 29.9 in North 1 mph 1 mph 70% 0.000 in
03:24 63.0 °F 53.0 °F 29.9 in Calm   1 mph 70% 0.000 in
03:29 63.0 °F 53.0 °F 29.9 in Calm     70% 0.000 in
03:34 63.0 °F 53.0 °F 29.9 in NNE 1 mph 3 mph 70% 0.000 in
03:39 63.0 °F 54.0 °F 29.9 in North 2 mph 3 mph 71% 0.000 in
03:44 63.0 °F 54.0 °F 29.9 in North 2 mph 2 mph 71% 0.000 in
03:49 63.0 °F 56.0 °F 29.9 in NW 5 mph 6 mph 78% 0.010 in
03:54 63.0 °F 57.0 °F 29.9 in NW 2 mph 6 mph 82% 0.080 in
03:59 62.0 °F 57.0 °F 29.9 in WNW 4 mph 4 mph 86% 0.180 in
04:04 61.0 °F 57.0 °F 29.9 in NNE 2 mph 3 mph 88% 0.190 in
04:09 60.0 °F 57.0 °F 29.9 in Calm     90% 0.210 in
04:14 59.0 °F 56.0 °F 29.9 in NNE 1 mph 1 mph 91% 0.220 in
04:19 59.0 °F 56.0 °F 29.9 in NNE 1 mph 2 mph 92% 0.230 in
04:24 58.0 °F 56.0 °F 29.9 in NNW 3 mph 3 mph 93% 0.230 in
04:29 58.0 °F 56.0 °F 29.9 in Calm   3 mph 93% 0.230 in
04:34 58.0 °F 56.0 °F 29.9 in NNE 1 mph 2 mph 94% 0.230 in
04:39 58.0 °F 56.0 °F 29.9 in Calm   2 mph 93% 0.230 in
04:44 57.0 °F 55.0 °F 29.9 in Calm     93% 0.230 in
04:49 57.0 °F 55.0 °F 29.9 in NE 1 mph 1 mph 94% 0.230 in
04:54 57.0 °F 56.0 °F 29.9 in Calm   1 mph 95% 0.210 in
04:59 57.0 °F 56.0 °F 29.9 in Calm     95% 0.120 in
05:04 57.0 °F 56.0 °F 29.9 in Calm   1 mph 95% 0.050 in
05:09 57.0 °F 56.0 °F 29.9 in Calm     95% 0.040 in
05:14 57.0 °F 55.0 °F 29.9 in Calm     95% 0.020 in
05:19 57.0 °F 55.0 °F 29.9 in Calm     95% 0.010 in
05:24 57.0 °F 55.0 °F 29.9 in Calm     95% 0.000 in
05:29 57.0 °F 56.0 °F 29.9 in Calm     96% 0.000 in
05:34 57.0 °F 56.0 °F 29.9 in ENE 2 mph 3 mph 96% 0.000 in
05:39 57.0 °F 56.0 °F 29.9 in Calm     96% 0.000 in
05:44 57.0 °F 56.0 °F 29.9 in Calm     96% 0.000 in
05:49 57.0 °F 56.0 °F 29.9 in Calm     96% 0.000 in
05:54 57.0 °F 56.0 °F 29.9 in ENE 1 mph 2 mph 96% 0.000 in
05:59 57.0 °F 56.0 °F 29.9 in ENE 2 mph 2 mph 96% 0.000 in
06:04 57.0 °F 56.0 °F 29.9 in Calm   2 mph 96% 0.000 in
06:09 57.0 °F 56.0 °F 29.9 in Calm   2 mph 96% 0.000 in
06:14 57.0 °F 56.0 °F 29.9 in Calm     96% 0.000 in
06:19 57.0 °F 56.0 °F 29.9 in ENE 1 mph 1 mph 96% 0.030 in
06:24 57.0 °F 56.0 °F 29.9 in Calm   1 mph 96% 0.050 in
06:29 57.0 °F 56.0 °F 29.9 in Calm     96% 0.060 in
06:34 57.0 °F 56.0 °F 29.9 in North 3 mph 3 mph 97% 0.060 in
06:39 57.0 °F 56.0 °F 29.9 in North 1 mph 3 mph 97% 0.070 in
06:44 57.0 °F 56.0 °F 29.9 in NW 3 mph 5 mph 97% 0.080 in
06:49 57.0 °F 56.0 °F 29.9 in SSE 2 mph 4 mph 97% 0.090 in
06:54 57.0 °F 56.0 °F 29.9 in WSW 4 mph 7 mph 97% 0.090 in
06:59 57.0 °F 56.0 °F 29.9 in West 3 mph 7 mph 96% 0.090 in
07:04 56.0 °F 55.0 °F 29.9 in West 4 mph 5 mph 95% 0.090 in
07:09 56.0 °F 54.0 °F 29.9 in NNE 3 mph 8 mph 94% 0.090 in
07:14 55.0 °F 54.0 °F 29.9 in NW 1 mph 5 mph 94% 0.090 in
07:19 55.0 °F 53.0 °F 30.0 in NW 4 mph 5 mph 94% 0.090 in
07:24 55.0 °F 53.0 °F 30.0 in NNW 3 mph 6 mph 94% 0.060 in
07:29 55.0 °F 53.0 °F 30.0 in NNW 3 mph 5 mph 94% 0.040 in
07:34 54.0 °F 53.0 °F 30.0 in ENE 1 mph 3 mph 94% 0.040 in
07:39 54.0 °F 53.0 °F 30.0 in NW 5 mph 5 mph 94% 0.040 in
07:44 54.0 °F 52.0 °F 30.0 in Calm   5 mph 94% 0.030 in
07:49 54.0 °F 52.0 °F 30.0 in WNW 1 mph 4 mph 94% 0.020 in
07:54 54.0 °F 52.0 °F 30.0 in Calm   2 mph 94% 0.010 in
07:59 53.0 °F 52.0 °F 30.0 in Calm   2 mph 94% 0.010 in
08:04 53.0 °F 51.0 °F 30.0 in Calm   2 mph 93% 0.010 in
08:09 53.0 °F 51.0 °F 30.0 in Calm   2 mph 94% 0.010 in
08:14 53.0 °F 51.0 °F 30.0 in Calm   2 mph 94% 0.010 in
08:19 53.0 °F 51.0 °F 30.0 in NW 4 mph 5 mph 94% 0.010 in
08:24 53.0 °F 51.0 °F 30.0 in Calm   1 mph 94% 0.010 in
08:29 53.0 °F 51.0 °F 30.0 in NNW 6 mph 7 mph 94% 0.000 in
08:34 53.0 °F 51.0 °F 30.0 in Calm   3 mph 94% 0.000 in
08:39 53.0 °F 51.0 °F 30.0 in Calm   1 mph 94% 0.000 in
08:44 53.0 °F 51.0 °F 30.0 in Calm   2 mph 94% 0.000 in
08:49 53.0 °F 51.0 °F 30.0 in Calm     94% 0.000 in
08:54 53.0 °F 51.0 °F 30.0 in NNW 2 mph 4 mph 94% 0.000 in
08:59 53.0 °F 51.0 °F 30.0 in WNW 6 mph 6 mph 94% 0.000 in
09:04 53.0 °F 51.0 °F 30.0 in North 1 mph 3 mph 93% 0.000 in
09:09 53.0 °F 51.0 °F 30.0 in North 6 mph 6 mph 92% 0.000 in
09:14 53.0 °F 51.0 °F 30.0 in NW 9 mph 9 mph 93% 0.000 in
09:19 53.0 °F 51.0 °F 30.0 in NW 3 mph 9 mph 92% 0.000 in
09:24 53.0 °F 51.0 °F 30.0 in WSW 7 mph 7 mph 92% 0.000 in
09:29 53.0 °F 51.0 °F 30.0 in NNE 3 mph 4 mph 92% 0.000 in
09:34 53.0 °F 51.0 °F 30.0 in NW 3 mph 11 mph 90% 0.000 in
09:39 53.0 °F 50.0 °F 30.0 in NW 6 mph 11 mph 89% 0.000 in
09:44 53.0 °F 50.0 °F 30.0 in North 6 mph 6 mph 90% 0.000 in
09:49 53.0 °F 51.0 °F 30.0 in NW 4 mph 5 mph 90% 0.000 in
09:54 54.0 °F 50.0 °F 30.0 in Calm   5 mph 87% 0.000 in
09:59 54.0 °F 51.0 °F 30.0 in NNE 1 mph 2 mph 89% 0.000 in
10:04 55.0 °F 51.0 °F 30.0 in East 2 mph 8 mph 89% 0.000 in
10:09 55.0 °F 50.0 °F 30.0 in NW 5 mph 7 mph 84% 0.000 in
10:14 55.0 °F 49.0 °F 30.0 in NNW 5 mph 9 mph 81% 0.000 in
10:19 55.0 °F 49.0 °F 30.0 in NW 5 mph 8 mph 82% 0.000 in
10:24 55.0 °F 50.0 °F 30.0 in West 3 mph 4 mph 82% 0.000 in
10:29 55.0 °F 50.0 °F 30.0 in NNW 5 mph 9 mph 82% 0.000 in
10:34 55.0 °F 49.0 °F 30.0 in WNW 5 mph 5 mph 79% 0.000 in
10:39 55.0 °F 48.0 °F 30.0 in NNW 7 mph 9 mph 76% 0.000 in
10:44 55.0 °F 48.0 °F 30.0 in NNW 5 mph 10 mph 75% 0.000 in
10:49 56.0 °F 47.0 °F 30.0 in NW 6 mph 10 mph 73% 0.000 in
10:54 56.0 °F 47.0 °F 30.0 in North 6 mph 9 mph 73% 0.000 in
10:59 56.0 °F 47.0 °F 30.0 in West 7 mph 7 mph 72% 0.000 in
11:04 57.0 °F 46.0 °F 30.0 in NNW 5 mph 7 mph 70% 0.000 in
11:09 57.0 °F 47.0 °F 30.0 in NW 6 mph 9 mph 69% 0.000 in
11:14 57.0 °F 46.0 °F 30.0 in NW 5 mph 7 mph 67% 0.000 in
11:19 58.0 °F 47.0 °F 30.1 in NE 6 mph 7 mph 68% 0.000 in
11:24 58.0 °F 46.0 °F 30.1 in North 7 mph 10 mph 65% 0.000 in
11:29 58.0 °F 46.0 °F 30.1 in NW 5 mph 10 mph 64% 0.000 in
11:34 59.0 °F 47.0 °F 30.1 in North 1 mph 5 mph 65% 0.000 in
11:39 59.0 °F 47.0 °F 30.1 in NNE 4 mph 6 mph 66% 0.000 in
11:44 59.0 °F 47.0 °F 30.1 in NNW 2 mph 8 mph 65% 0.000 in
11:49 59.0 °F 46.0 °F 30.1 in NW 3 mph 8 mph 62% 0.000 in
11:54 59.0 °F 47.0 °F 30.1 in WNW 7 mph 7 mph 63% 0.000 in
11:59 59.0 °F 47.0 °F 30.1 in NNW 9 mph 9 mph 65% 0.000 in
12:04 59.0 °F 47.0 °F 30.1 in WNW 4 mph 5 mph 65% 0.000 in
12:09 59.0 °F 46.0 °F 30.1 in North 3 mph 5 mph 63% 0.000 in
12:14 59.0 °F 48.0 °F 30.1 in North 4 mph 6 mph 66% 0.000 in
12:19 59.0 °F 46.0 °F 30.1 in NE 2 mph 4 mph 62% 0.000 in
12:24 59.0 °F 46.0 °F 30.1 in NW 4 mph 7 mph 61% 0.000 in
12:29 59.0 °F 46.0 °F 30.1 in NNW 6 mph 6 mph 62% 0.000 in
12:34 59.0 °F 46.0 °F 30.1 in NNW 3 mph 7 mph 63% 0.000 in
12:39 59.0 °F 46.0 °F 30.1 in NNW 4 mph 6 mph 62% 0.000 in
12:44 59.0 °F 47.0 °F 30.1 in North 3 mph 4 mph 64% 0.000 in
12:49 60.0 °F 47.0 °F 30.1 in NW 3 mph 5 mph 64% 0.000 in
12:54 60.0 °F 46.0 °F 30.1 in NNE 2 mph 5 mph 61% 0.000 in
12:59 60.0 °F 45.0 °F 30.1 in NE 2 mph 3 mph 57% 0.000 in
13:04 60.0 °F 45.0 °F 30.1 in NW 4 mph 6 mph 57% 0.000 in
13:09 60.0 °F 45.0 °F 30.1 in NNW 2 mph 6 mph 57% 0.000 in
13:14 60.0 °F 45.0 °F 30.1 in NNE 6 mph 8 mph 57% 0.000 in
13:19 60.0 °F 46.0 °F 30.0 in WNW 2 mph 4 mph 60% 0.000 in
13:24 60.0 °F 46.0 °F 30.0 in NNE 8 mph 8 mph 59% 0.000 in
13:29 60.0 °F 46.0 °F 30.0 in NNW 4 mph 8 mph 58% 0.000 in
13:34 60.0 °F 44.0 °F 30.0 in NNE 7 mph 8 mph 55% 0.000 in
13:39 61.0 °F 45.0 °F 30.0 in WNW 2 mph 8 mph 56% 0.000 in
13:44 61.0 °F 47.0 °F 30.0 in WNW 3 mph 4 mph 59% 0.000 in
13:49 62.0 °F 46.0 °F 30.0 in North 3 mph 4 mph 56% 0.000 in
13:54 62.0 °F 44.0 °F 30.0 in Calm   3 mph 52% 0.000 in
13:59 61.0 °F 44.0 °F 30.0 in NE 4 mph 5 mph 52% 0.000 in
14:04 61.0 °F 44.0 °F 30.0 in NNW 4 mph 5 mph 53% 0.000 in
14:09 62.0 °F 44.0 °F 30.0 in NW 5 mph 6 mph 53% 0.000 in
14:14 62.0 °F 45.0 °F 30.0 in NNE 2 mph 3 mph 54% 0.000 in
14:19 62.0 °F 45.0 °F 30.0 in North 3 mph 5 mph 54% 0.000 in
14:24 62.0 °F 45.0 °F 30.0 in NW 5 mph 5 mph 54% 0.000 in
14:29 62.0 °F 44.0 °F 30.0 in North 2 mph 4 mph 51% 0.000 in
14:34 62.0 °F 45.0 °F 30.0 in NNW 3 mph 5 mph 53% 0.000 in
14:39 62.0 °F 43.0 °F 30.0 in North 6 mph 8 mph 50% 0.000 in
14:44 62.0 °F 43.0 °F 30.0 in North 1 mph 2 mph 50% 0.000 in
14:49 63.0 °F 45.0 °F 30.0 in ENE 3 mph 5 mph 52% 0.000 in
14:54 63.0 °F 42.0 °F 30.0 in NW 5 mph 6 mph 47% 0.000 in
14:59 63.0 °F 43.0 °F 30.0 in NNW 1 mph 2 mph 47% 0.000 in
15:04 63.0 °F 42.0 °F 30.0 in NNW 3 mph 4 mph 46% 0.000 in
15:09 63.0 °F 43.0 °F 30.0 in NNE 2 mph 4 mph 48% 0.000 in
15:14 63.0 °F 42.0 °F 30.0 in NW 8 mph 8 mph 46% 0.000 in
15:19 63.0 °F 41.0 °F 30.0 in NW 4 mph 6 mph 45% 0.000 in
15:24 63.0 °F 41.0 °F 30.0 in ESE 5 mph 5 mph 44% 0.000 in
15:29 63.0 °F 41.0 °F 30.0 in NNW 4 mph 5 mph 45% 0.000 in
15:34 63.0 °F 42.0 °F 30.0 in NNW 1 mph 3 mph 45% 0.000 in
15:39 64.0 °F 41.0 °F 30.0 in NW 1 mph 3 mph 44% 0.000 in
15:44 64.0 °F 41.0 °F 30.0 in NW 1 mph 1 mph 43% 0.000 in
15:49 64.0 °F 41.0 °F 30.0 in WNW 2 mph 4 mph 44% 0.000 in
15:54 64.0 °F 42.0 °F 30.0 in NW 1 mph 4 mph 44% 0.000 in
15:59 64.0 °F 41.0 °F 30.0 in NNE 2 mph 3 mph 42% 0.000 in
16:04 64.0 °F 42.0 °F 30.0 in NNW 2 mph 3 mph 45% 0.000 in
16:09 64.0 °F 46.0 °F 30.0 in North 3 mph 5 mph 51% 0.000 in
16:14 64.0 °F 46.0 °F 30.0 in NW 8 mph 11 mph 52% 0.000 in
16:19 64.0 °F 46.0 °F 30.0 in NNW 4 mph 11 mph 51% 0.000 in
16:24 64.0 °F 46.0 °F 30.0 in NNW 1 mph 2 mph 51% 0.000 in
16:29 64.0 °F 45.0 °F 30.0 in NE 4 mph 5 mph 51% 0.000 in
16:34 64.0 °F 45.0 °F 30.0 in East 2 mph 3 mph 51% 0.000 in
16:39 63.0 °F 44.0 °F 30.0 in East 5 mph 5 mph 50% 0.000 in
16:44 63.0 °F 44.0 °F 30.0 in East 1 mph 4 mph 50% 0.000 in
16:49 63.0 °F 44.0 °F 30.0 in NNE 4 mph 4 mph 50% 0.000 in
16:54 64.0 °F 45.0 °F 30.0 in ENE 5 mph 6 mph 51% 0.000 in
16:59 64.0 °F 45.0 °F 30.0 in NNW 3 mph 6 mph 51% 0.000 in
17:04 64.0 °F 45.0 °F 30.0 in NNW 2 mph 4 mph 50% 0.000 in
17:09 64.0 °F 44.0 °F 30.0 in NNW 3 mph 5 mph 48% 0.000 in
17:14 64.0 °F 45.0 °F 30.0 in North 1 mph 5 mph 51% 0.000 in
17:19 64.0 °F 44.0 °F 30.0 in Calm   2 mph 49% 0.000 in
17:24 64.0 °F 44.0 °F 30.0 in North 2 mph 3 mph 49% 0.000 in
17:29 63.0 °F 44.0 °F 30.0 in Calm   4 mph 49% 0.000 in
17:34 63.0 °F 45.0 °F 30.0 in NNW 3 mph 5 mph 51% 0.000 in
17:39 63.0 °F 44.0 °F 30.0 in NW 2 mph 4 mph 49% 0.000 in
17:44 64.0 °F 44.0 °F 30.0 in NNW 1 mph 2 mph 49% 0.000 in
17:49 64.0 °F 44.0 °F 30.0 in NNW 3 mph 4 mph 49% 0.000 in
17:54 64.0 °F 43.0 °F 30.0 in Calm   1 mph 47% 0.000 in
17:59 63.0 °F 44.0 °F 30.0 in North 3 mph 3 mph 49% 0.000 in
18:04 63.0 °F 44.0 °F 30.0 in NE 1 mph 3 mph 50% 0.000 in
18:09 63.0 °F 45.0 °F 30.0 in Calm   1 mph 51% 0.000 in
18:14 63.0 °F 44.0 °F 30.0 in NNE 2 mph 2 mph 49% 0.000 in
18:19 63.0 °F 45.0 °F 30.0 in NE 4 mph 4 mph 52% 0.000 in
18:24 63.0 °F 44.0 °F 30.0 in Calm   3 mph 49% 0.000 in
18:29 63.0 °F 45.0 °F 30.0 in NNW 2 mph 3 mph 52% 0.000 in
18:34 63.0 °F 45.0 °F 30.0 in Calm     52% 0.000 in
18:39 63.0 °F 46.0 °F 30.0 in Calm   2 mph 53% 0.000 in
18:44 63.0 °F 46.0 °F 30.0 in NE 1 mph 2 mph 53% 0.000 in
18:49 62.0 °F 45.0 °F 30.0 in Calm   3 mph 53% 0.000 in
18:54 62.0 °F 45.0 °F 30.0 in North 4 mph 4 mph 52% 0.000 in
18:59 62.0 °F 45.0 °F 30.0 in North 1 mph 1 mph 53% 0.000 in
19:04 62.0 °F 46.0 °F 30.0 in Calm   1 mph 56% 0.000 in
19:09 62.0 °F 46.0 °F 30.0 in Calm     56% 0.000 in
19:14 61.0 °F 46.0 °F 30.0 in Calm     56% 0.000 in
19:19 61.0 °F 46.0 °F 30.0 in Calm   1 mph 57% 0.000 in
19:24 61.0 °F 46.0 °F 30.0 in Calm     57% 0.000 in
19:29 61.0 °F 46.0 °F 30.0 in Calm     58% 0.000 in
19:34 60.0 °F 46.0 °F 30.0 in North 1 mph 1 mph 60% 0.000 in
19:39 60.0 °F 46.0 °F 30.0 in Calm     61% 0.000 in
19:44 60.0 °F 46.0 °F 30.0 in Calm     62% 0.000 in
19:49 59.0 °F 46.0 °F 30.0 in Calm     62% 0.000 in
19:54 59.0 °F 47.0 °F 30.0 in Calm     65% 0.000 in
19:59 59.0 °F 46.0 °F 30.0 in Calm     64% 0.000 in
20:04 58.0 °F 46.0 °F 30.0 in Calm     65% 0.000 in
20:09 57.0 °F 45.0 °F 30.0 in Calm     64% 0.000 in
20:14 57.0 °F 45.0 °F 30.0 in Calm     65% 0.000 in
20:19 57.0 °F 45.0 °F 30.0 in Calm     65% 0.000 in
20:24 56.0 °F 45.0 °F 30.0 in Calm     65% 0.000 in
20:29 56.0 °F 43.0 °F 30.0 in Calm   1 mph 63% 0.000 in
20:34 55.0 °F 44.0 °F 30.0 in Calm     65% 0.000 in
20:39 55.0 °F 44.0 °F 30.0 in Calm     67% 0.000 in
20:44 54.0 °F 43.0 °F 30.0 in Calm     66% 0.000 in
20:49 54.0 °F 43.0 °F 30.0 in Calm     68% 0.000 in
20:54 53.0 °F 44.0 °F 30.0 in Calm     70% 0.000 in
20:59 53.0 °F 43.0 °F 30.0 in Calm     69% 0.000 in
21:04 53.0 °F 43.0 °F 30.0 in Calm     71% 0.000 in
21:09 52.0 °F 43.0 °F 30.0 in Calm     71% 0.000 in
21:14 52.0 °F 43.0 °F 30.0 in Calm     73% 0.000 in
21:19 52.0 °F 43.0 °F 30.0 in Calm     73% 0.000 in
21:24 51.0 °F 44.0 °F 30.0 in Calm     74% 0.000 in
21:29 51.0 °F 43.0 °F 30.0 in Calm     73% 0.000 in
21:34 51.0 °F 42.0 °F 30.0 in Calm     73% 0.000 in
21:39 50.0 °F 42.0 °F 30.0 in Calm     74% 0.000 in
21:44 50.0 °F 42.0 °F 30.0 in Calm     75% 0.000 in
21:49 50.0 °F 42.0 °F 30.0 in Calm     74% 0.000 in
21:54 49.0 °F 42.0 °F 30.0 in Calm     75% 0.000 in
21:59 49.0 °F 42.0 °F 30.0 in Calm     76% 0.000 in
22:04 49.0 °F 42.0 °F 30.0 in Calm     77% 0.000 in
22:09 48.0 °F 42.0 °F 30.0 in Calm     78% 0.000 in
22:14 48.0 °F 42.0 °F 30.0 in Calm     79% 0.000 in
22:19 48.0 °F 41.0 °F 30.0 in Calm     79% 0.000 in
22:24 47.0 °F 41.0 °F 30.0 in Calm     80% 0.000 in
22:29 47.0 °F 41.0 °F 30.0 in Calm     80% 0.000 in
22:34 47.0 °F 41.0 °F 30.0 in Calm     81% 0.000 in
22:39 46.0 °F 41.0 °F 30.0 in Calm     82% 0.000 in
22:44 46.0 °F 41.0 °F 30.0 in Calm     83% 0.000 in
22:49 46.0 °F 41.0 °F 30.0 in Calm     83% 0.000 in
22:54 46.0 °F 41.0 °F 30.0 in Calm     84% 0.000 in
22:59 45.0 °F 41.0 °F 30.0 in Calm     84% 0.000 in
23:04 45.0 °F 41.0 °F 30.0 in Calm     85% 0.000 in
23:09 44.0 °F 41.0 °F 30.0 in Calm     86% 0.000 in
23:14 44.0 °F 40.0 °F 30.0 in Calm     86% 0.000 in
23:19 44.0 °F 40.0 °F 30.0 in Calm     86% 0.000 in
23:24 44.0 °F 40.0 °F 30.0 in Calm     87% 0.000 in
23:29 44.0 °F 40.0 °F 30.0 in Calm     87% 0.000 in
23:34 44.0 °F 40.0 °F 30.0 in Calm     88% 0.000 in
23:39 44.0 °F 40.0 °F 30.0 in Calm     88% 0.000 in
23:44 43.0 °F 40.0 °F 30.0 in Calm     88% 0.000 in
23:49 43.0 °F 40.0 °F 30.0 in Calm     89% 0.000 in
23:54 43.0 °F 40.0 °F 30.0 in Calm     89% 0.000 in
23:59 43.0 °F 40.0 °F 30.0 in Calm     89% 0.000 in
East Ellijay Weather
Compliments of Weather Underground - 2 mb